Time;durP1;ratioP1;P1;durP2;ratioP2;P2;SDS_P1;SDS_P2;PMS_P1;PMS_P2;Temp;Humidity;BMP_temperature;BMP_pressure;BME280_temperature;BME280_humidity;BME280_pressure;Samples;Min_cycle;Max_cycle;Signal;HPM_P1;HPM_P2
2023/03/26 00:02:05;;;;;;;;;;;;;;;;;;5016798;28;20580;-79
2023/03/26 00:04:33;;;;;;;;;;;;;;;;;;5017425;28;19936;-80
2023/03/26 00:07:00;;;;;;;;;;;;;;;;;;5005709;28;19925;-80
2023/03/26 00:09:33;;;;;;;;;;;;;;;;;;5002647;28;19928;-80
2023/03/26 00:12:01;;;;;;;;;;;;;;;;;;5002412;28;20366;-80
2023/03/26 00:14:29;;;;;;;;;;;;;;;;;;5003401;28;19921;-80
2023/03/26 00:17:03;;;;;;;;;;;;;;;;;;5010395;28;19993;-80
2023/03/26 00:19:31;;;;;;;;;;;;;;;;;;5003393;28;20362;-80
2023/03/26 00:21:59;;;;;;;;;;;;;;;;;;5000992;28;19925;-80
2023/03/26 00:24:31;;;;;;;;;;;;;;;;;;5003284;28;19922;-80
2023/03/26 00:26:59;;;;;;;;;;;;;;;;;;5004722;28;19933;-80
2023/03/26 00:29:34;;;;;;;;;;;;;;;;;;5019592;28;19929;-81
2023/03/26 00:32:01;;;;;;;;;;;;;;;;;;5009407;28;19933;-80
2023/03/26 00:34:29;;;;;;;;;;;;;;;;;;5003946;28;20372;-80
2023/03/26 00:37:01;;;;;;;;;;;;;;;;;;5021569;28;19928;-81
2023/03/26 00:39:36;;;;;;;;;;;;;;;;;;5002276;28;19929;-80
2023/03/26 00:42:06;;;;;;;;;;;;;;;;;;5020164;28;19941;-80
2023/03/26 00:44:33;;;;;;;;;;;;;;;;;;5006878;28;19921;-81
2023/03/26 00:47:06;;;;;;;;;;;;;;;;;;5006517;28;19925;-81
2023/03/26 00:49:34;;;;;;;;;;;;;;;;;;5003131;28;19921;-81
2023/03/26 00:52:02;;;;;;;;;;;;;;;;;;5004494;28;20339;-81
2023/03/26 00:54:30;;;;;;;;;;;;;;;;;;4999696;28;19940;-80
2023/03/26 00:56:58;;;;;;;;;;;;;;;;;;5016916;28;19929;-81
2023/03/26 00:59:29;;;;;;;;;;;;;;;;;;5000721;28;19944;-81
2023/03/26 01:02:02;;;;;;;;;;;;;;;;;;5018031;28;20279;-81
2023/03/26 01:04:30;;;;;;;;;;;;;;;;;;5018253;28;19932;-81
2023/03/26 01:06:58;;;;;;;;;;;;;;;;;;5010570;28;20907;-80
2023/03/26 01:09:25;;;;;;;;;;;;;;;;;;5018384;28;19925;-80
2023/03/26 01:11:53;;;;;;;;;;;;;;;;;;5003790;28;20354;-80
2023/03/26 01:14:22;;;;;;;;;;;;;;;;;;5001925;28;19928;-80
2023/03/26 01:16:51;;;;;;;;;;;;;;;;;;5015734;28;20358;-80
2023/03/26 01:19:20;;;;;;;;;;;;;;;;;;5008279;28;19930;-81
2023/03/26 01:21:47;;;;;;;;;;;;;;;;;;5002826;28;19922;-80
2023/03/26 01:24:15;;;;;;;;;;;;;;;;;;5006166;28;19929;-80
2023/03/26 01:26:43;;;;;;;;;;;;;;;;;;5008325;28;19921;-80
2023/03/26 01:29:10;;;;;;;;;;;;;;;;;;5018168;28;20297;-80
2023/03/26 01:31:39;;;;;;;;;;;;;;;;;;5019242;28;19921;-80
2023/03/26 01:34:06;;;;;;;;;;;;;;;;;;5016674;28;19928;-79
2023/03/26 01:36:34;;;;;;;;;;;;;;;;;;5008814;28;19925;-80
2023/03/26 01:39:06;;;;;;;;;;;;;;;;;;5002596;28;20827;-80
2023/03/26 01:41:34;;;;;;;;;;;;;;;;;;5004810;28;19926;-80
2023/03/26 01:44:02;;;;;;;;;;;;;;;;;;5002306;28;19929;-80
2023/03/26 01:46:29;;;;;;;;;;;;;;;;;;5004016;28;19928;-80
2023/03/26 01:48:57;;;;;;;;;;;;;;;;;;5017993;28;19937;-79
2023/03/26 01:51:24;;;;;;;;;;;;;;;;;;5016193;28;19929;-81
2023/03/26 01:53:52;;;;;;;;;;;;;;;;;;5004270;28;20285;-80
2023/03/26 01:56:24;;;;;;;;;;;;;;;;;;5003039;28;19922;-80
2023/03/26 01:58:52;;;;;;;;;;;;;;;;;;5014539;28;19925;-80
2023/03/26 02:01:23;;;;;;;;;;;;;;;;;;5008468;28;19932;-80
2023/03/26 02:03:55;;;;;;;;;;;;;;;;;;5002448;28;19949;-80
2023/03/26 02:06:24;;;;;;;;;;;;;;;;;;5002453;28;19922;-80
2023/03/26 02:08:57;;;;;;;;;;;;;;;;;;5009665;28;20262;-79
2023/03/26 02:11:29;;;;;;;;;;;;;;;;;;5005455;28;19944;-79
2023/03/26 02:13:57;;;;;;;;;;;;;;;;;;5005758;28;19932;-80
2023/03/26 02:16:24;;;;;;;;;;;;;;;;;;5011930;28;19925;-80
2023/03/26 02:18:54;;;;;;;;;;;;;;;;;;5003129;28;20306;-79
2023/03/26 02:21:27;;;;;;;;;;;;;;;;;;5005130;28;20279;-81
2023/03/26 02:23:56;;;;;;;;;;;;;;;;;;5022019;28;19944;-80
2023/03/26 02:26:24;;;;;;;;;;;;;;;;;;5007290;28;19922;-80
2023/03/26 02:29:11;;;;;;;;;;;;;;;;;;5019136;28;19929;-80
2023/03/26 02:31:40;;;;;;;;;;;;;;;;;;5012373;28;19938;-80
2023/03/26 02:34:12;;;;;;;;;;;;;;;;;;5006755;28;19925;-80
2023/03/26 02:36:46;;;;;;;;;;;;;;;;;;5018705;28;19922;-80
2023/03/26 02:39:14;;;;;;;;;;;;;;;;;;5006732;28;19922;-79
2023/03/26 02:41:48;;;;;;;;;;;;;;;;;;5018911;28;19929;-81
2023/03/26 02:44:15;;;;;;;;;;;;;;;;;;5004810;28;20389;-80
2023/03/26 02:47:08;;;;;;;;;;;;;;;;;;5005418;28;20285;-80
2023/03/26 02:49:56;;;;;;;;;;;;;;;;;;4995369;28;19944;-79
2023/03/26 02:52:48;;;;;;;;;;;;;;;;;;5004305;28;19925;-80
2023/03/26 02:55:16;;;;;;;;;;;;;;;;;;5010484;28;19936;-80
2023/03/26 02:57:51;;;;;;;;;;;;;;;;;;5003298;28;19926;-79
2023/03/26 03:00:21;;;;;;;;;;;;;;;;;;5006982;28;19925;-81
2023/03/26 03:02:56;;;;;;;;;;;;;;;;;;5010893;28;19925;-79
2023/03/26 03:05:30;;;;;;;;;;;;;;;;;;5004783;28;19928;-81
2023/03/26 03:08:17;;;;;;;;;;;;;;;;;;5006305;28;19993;-80
2023/03/26 03:11:03;;;;;;;;;;;;;;;;;;5010759;28;20404;-80
2023/03/26 03:13:44;;;;;;;;;;;;;;;;;;5003348;28;19921;-80
2023/03/26 03:16:20;;;;;;;;;;;;;;;;;;5004493;28;19944;-80
2023/03/26 03:18:52;;;;;;;;;;;;;;;;;;5004311;28;19948;-81
2023/03/26 03:21:21;;;;;;;;;;;;;;;;;;5004262;28;19925;-80
2023/03/26 03:23:49;;;;;;;;;;;;;;;;;;5023943;28;19921;-80
2023/03/26 03:26:16;;;;;;;;;;;;;;;;;;5017559;28;19933;-80
2023/03/26 03:28:50;;;;;;;;;;;;;;;;;;5011330;28;19922;-80
2023/03/26 03:31:17;;;;;;;;;;;;;;;;;;5020098;28;19927;-80
2023/03/26 03:33:45;;;;;;;;;;;;;;;;;;5004611;28;19929;-80
2023/03/26 03:36:13;;;;;;;;;;;;;;;;;;5018962;28;19929;-80
2023/03/26 03:38:46;;;;;;;;;;;;;;;;;;5020350;28;20378;-80
2023/03/26 03:41:18;;;;;;;;;;;;;;;;;;5018723;28;19928;-80
2023/03/26 03:43:46;;;;;;;;;;;;;;;;;;5021133;28;20408;-80
2023/03/26 03:46:18;;;;;;;;;;;;;;;;;;5002646;28;19932;-80
2023/03/26 03:48:48;;;;;;;;;;;;;;;;;;5019202;28;19929;-81
2023/03/26 03:51:20;;;;;;;;;;;;;;;;;;5010025;28;20297;-81
2023/03/26 03:53:51;;;;;;;;;;;;;;;;;;5003900;28;19929;-79
2023/03/26 03:56:31;;;;;;;;;;;;;;;;;;5010261;28;19936;-80
2023/03/26 03:59:10;;;;;;;;;;;;;;;;;;5003694;28;20298;-80
2023/03/26 04:01:45;;;;;;;;;;;;;;;;;;5004457;28;19925;-80
2023/03/26 04:04:23;;;;;;;;;;;;;;;;;;5019499;28;19932;-81
2023/03/26 04:06:58;;;;;;;;;;;;;;;;;;5018527;28;19929;-80
2023/03/26 04:09:32;;;;;;;;;;;;;;;;;;5001948;28;19925;-80
2023/03/26 04:12:04;;;;;;;;;;;;;;;;;;5018852;28;19926;-81
2023/03/26 04:14:59;;;;;;;;;;;;;;;;;;5009694;28;19925;-80
2023/03/26 04:17:29;;;;;;;;;;;;;;;;;;5004010;28;19929;-80
2023/03/26 04:19:56;;;;;;;;;;;;;;;;;;5001662;28;19926;-80
2023/03/26 04:22:33;;;;;;;;;;;;;;;;;;5001974;28;20725;-80
2023/03/26 04:25:07;;;;;;;;;;;;;;;;;;5022448;28;19940;-80
2023/03/26 04:27:46;;;;;;;;;;;;;;;;;;5004262;28;19929;-80
2023/03/26 04:30:27;;;;;;;;;;;;;;;;;;5004282;28;19926;-80
2023/03/26 04:33:23;;;;;;;;;;;;;;;;;;5001411;28;19933;-80
2023/03/26 04:35:52;;;;;;;;;;;;;;;;;;5002767;28;19925;-81
2023/03/26 04:38:25;;;;;;;;;;;;;;;;;;5007735;28;19928;-81
2023/03/26 04:40:52;;;;;;;;;;;;;;;;;;5017998;28;19922;-81
2023/03/26 04:43:49;;;;;;;;;;;;;;;;;;5009431;28;19932;-80
2023/03/26 04:46:51;;;;;;;;;;;;;;;;;;5000535;28;19925;-81
2023/03/26 04:49:25;;;;;;;;;;;;;;;;;;5005151;28;19921;-81
2023/03/26 04:51:58;;;;;;;;;;;;;;;;;;5003226;28;19932;-80
2023/03/26 04:54:49;;;;;;;;;;;;;;;;;;5002397;28;19933;-80
2023/03/26 04:57:18;;;;;;;;;;;;;;;;;;4998354;28;19922;-80
2023/03/26 04:59:50;;;;;;;;;;;;;;;;;;5016450;28;19922;-80
2023/03/26 05:02:19;;;;;;;;;;;;;;;;;;5014867;28;19929;-81
2023/03/26 05:04:52;;;;;;;;;;;;;;;;;;5000720;28;19925;-80
2023/03/26 05:07:21;;;;;;;;;;;;;;;;;;5000801;28;20392;-80
2023/03/26 05:09:51;;;;;;;;;;;;;;;;;;5004524;28;19925;-80
2023/03/26 05:12:48;;;;;;;;;;;;;;;;;;5006447;28;19926;-81
2023/03/26 05:15:25;;;;;;;;;;;;;;;;;;5017463;28;20290;-81
2023/03/26 05:18:08;;;;;;;;;;;;;;;;;;5008372;28;20305;-80
2023/03/26 05:20:42;;;;;;;;;;;;;;;;;;5007339;28;19922;-81
2023/03/26 05:23:10;;;;;;;;;;;;;;;;;;5016747;28;19945;-80
2023/03/26 05:25:46;;;;;;;;;;;;;;;;;;5000142;28;20370;-80
2023/03/26 05:28:23;;;;;;;;;;;;;;;;;;5000728;28;19929;-80
2023/03/26 05:30:57;;;;;;;;;;;;;;;;;;5017574;28;19926;-80
2023/03/26 05:33:27;;;;;;;;;;;;;;;;;;5014558;28;19936;-79
2023/03/26 05:36:02;;;;;;;;;;;;;;;;;;5007210;28;19925;-80
2023/03/26 05:38:31;;;;;;;;;;;;;;;;;;5001395;28;19928;-80
2023/03/26 05:40:59;;;;;;;;;;;;;;;;;;5016121;28;19932;-81
2023/03/26 05:43:27;;;;;;;;;;;;;;;;;;5006113;28;20321;-81
2023/03/26 05:46:22;;;;;;;;;;;;;;;;;;5003725;28;19922;-80
2023/03/26 05:48:54;;;;;;;;;;;;;;;;;;5007715;28;19921;-80
2023/03/26 05:51:22;;;;;;;;;;;;;;;;;;5017746;28;19922;-80
2023/03/26 05:54:00;;;;;;;;;;;;;;;;;;5003328;28;19936;-80
2023/03/26 05:57:08;;;;;;;;;;;;;;;;;;4950357;28;19922;-80
2023/03/26 05:59:59;;;;;;;;;;;;;;;;;;4997998;28;19932;-81
2023/03/26 06:02:45;;;;;;;;;;;;;;;;;;5004842;28;19928;-81
2023/03/26 06:05:38;;;;;;;;;;;;;;;;;;5003595;28;19921;-79
2023/03/26 06:08:26;;;;;;;;;;;;;;;;;;5007797;28;19932;-81
2023/03/26 06:10:58;;;;;;;;;;;;;;;;;;5009113;28;19993;-81
2023/03/26 06:13:27;;;;;;;;;;;;;;;;;;5016841;28;19925;-81
2023/03/26 06:15:56;;;;;;;;;;;;;;;;;;5005684;28;19930;-81
2023/03/26 06:18:29;;;;;;;;;;;;;;;;;;5008298;28;19928;-81
2023/03/26 06:21:22;;;;;;;;;;;;;;;;;;4999255;28;19922;-80
2023/03/26 06:24:09;;;;;;;;;;;;;;;;;;5001414;28;19925;-80
2023/03/26 06:26:46;;;;;;;;;;;;;;;;;;4997885;28;19932;-81
2023/03/26 06:29:31;;;;;;;;;;;;;;;;;;5008654;28;20378;-81
2023/03/26 06:32:12;;;;;;;;;;;;;;;;;;5015136;28;19925;-80
2023/03/26 06:34:44;;;;;;;;;;;;;;;;;;5008932;28;19930;-81
2023/03/26 06:37:12;;;;;;;;;;;;;;;;;;5002772;28;19929;-80
2023/03/26 06:39:39;;;;;;;;;;;;;;;;;;5017614;28;19921;-80
2023/03/26 06:42:14;;;;;;;;;;;;;;;;;;5017512;28;19928;-80
2023/03/26 06:44:57;;;;;;;;;;;;;;;;;;5000854;28;19925;-81
2023/03/26 06:47:34;;;;;;;;;;;;;;;;;;5002511;28;19928;-83
2023/03/26 06:50:28;;;;;;;;;;;;;;;;;;5004985;28;20316;-82
2023/03/26 06:53:11;;;;;;;;;;;;;;;;;;5016125;28;20001;-81
2023/03/26 06:55:55;;;;;;;;;;;;;;;;;;5021235;28;19940;-80
2023/03/26 06:58:36;;;;;;;;;;;;;;;;;;5009564;28;19921;-82
2023/03/26 07:01:22;;;;;;;;;;;;;;;;;;5008048;28;19933;-80
2023/03/26 07:04:13;;;;;;;;;;;;;;;;;;5013662;28;19933;-82
2023/03/26 07:07:10;;;;;;;;;;;;;;;;;;4990570;28;20354;-81
2023/03/26 07:09:56;;;;;;;;;;;;;;;;;;5007234;28;19944;-81
2023/03/26 07:12:35;;;;;;;;;;;;;;;;;;5007599;28;19928;-81
2023/03/26 07:15:22;;;;;;;;;;;;;;;;;;5008906;28;20007;-80
2023/03/26 07:18:11;;;;;;;;;;;;;;;;;;5023135;28;19925;-80
2023/03/26 07:20:41;;;;;;;;;;;;;;;;;;5003140;28;19928;-81
2023/03/26 07:23:09;;;;;;;;;;;;;;;;;;5006582;28;19926;-80
2023/03/26 07:25:54;;;;;;;;;;;;;;;;;;5018524;28;19928;-81
2023/03/26 07:28:40;;;;;;;;;;;;;;;;;;5007697;28;20374;-82
2023/03/26 07:31:41;;;;;;;;;;;;;;;;;;5018628;28;19925;-81
2023/03/26 07:34:18;;;;;;;;;;;;;;;;;;5018346;28;19925;-81
2023/03/26 07:37:02;;;;;;;;;;;;;;;;;;5004366;28;19925;-81
2023/03/26 07:39:54;;;;;;;;;;;;;;;;;;5001194;28;19921;-81
2023/03/26 07:42:52;;;;;;;;;;;;;;;;;;5000519;28;19925;-80
2023/03/26 07:45:48;;;;;;;;;;;;;;;;;;5004803;28;19926;-81
2023/03/26 07:48:43;;;;;;;;;;;;;;;;;;5007374;28;20480;-82
2023/03/26 07:51:17;;;;;;;;;;;;;;;;;;5002198;28;19921;-82
2023/03/26 07:54:08;;;;;;;;;;;;;;;;;;5006279;28;19997;-83
2023/03/26 07:56:41;;;;;;;;;;;;;;;;;;5013009;28;20298;-82
2023/03/26 07:59:25;;;;;;;;;;;;;;;;;;5016911;28;19955;-81
2023/03/26 08:02:09;;;;;;;;;;;;;;;;;;5004356;28;19928;-84
2023/03/26 08:04:48;;;;;;;;;;;;;;;;;;5019526;28;19925;-83
2023/03/26 08:07:51;;;;;;;;;;;;;;;;;;5004515;28;19929;-79
2023/03/26 08:10:29;;;;;;;;;;;;;;;;;;5003992;28;19932;-82
2023/03/26 08:13:04;;;;;;;;;;;;;;;;;;5003697;28;19929;-82
2023/03/26 08:15:37;;;;;;;;;;;;;;;;;;5004537;28;20019;-84
2023/03/26 08:18:10;;;;;;;;;;;;;;;;;;5004866;28;19921;-81
2023/03/26 08:20:42;;;;;;;;;;;;;;;;;;5015929;28;20001;-81
2023/03/26 08:23:10;;;;;;;;;;;;;;;;;;5004764;28;19928;-80
2023/03/26 08:25:43;;;;;;;;;;;;;;;;;;5005907;28;19930;-83
2023/03/26 08:28:16;;;;;;;;;;;;;;;;;;5002601;28;19929;-83
2023/03/26 08:30:49;;;;;;;;;;;;;;;;;;5018631;28;19936;-81
2023/03/26 08:33:16;;;;;;;;;;;;;;;;;;5017052;28;20317;-81
2023/03/26 08:35:44;;;;;;;;;;;;;;;;;;5016677;28;19940;-81
2023/03/26 08:38:12;;;;;;;;;;;;;;;;;;5002745;28;19929;-82
2023/03/26 08:40:39;;;;;;;;;;;;;;;;;;5002186;28;19922;-81
2023/03/26 08:43:12;;;;;;;;;;;;;;;;;;5004093;28;19926;-81
2023/03/26 08:45:40;;;;;;;;;;;;;;;;;;5002866;28;19928;-81
2023/03/26 08:48:08;;;;;;;;;;;;;;;;;;5016982;28;19929;-81
2023/03/26 08:50:35;;;;;;;;;;;;;;;;;;4999791;28;19926;-83
2023/03/26 08:53:08;;;;;;;;;;;;;;;;;;5007581;28;19928;-82
2023/03/26 08:55:43;;;;;;;;;;;;;;;;;;5016964;28;19921;-81
2023/03/26 08:58:10;;;;;;;;;;;;;;;;;;5016690;28;19925;-80
2023/03/26 09:00:38;;;;;;;;;;;;;;;;;;4999117;28;19925;-80
2023/03/26 09:03:05;;;;;;;;;;;;;;;;;;5001720;28;20317;-81
2023/03/26 09:05:33;;;;;;;;;;;;;;;;;;5016466;28;20400;-80
2023/03/26 09:08:05;;;;;;;;;;;;;;;;;;5002143;28;19921;-81
2023/03/26 09:10:33;;;;;;;;;;;;;;;;;;5000967;28;19921;-81
2023/03/26 09:13:05;;;;;;;;;;;;;;;;;;5005111;28;19926;-81
2023/03/26 09:15:33;;;;;;;;;;;;;;;;;;5000124;28;19926;-82
2023/03/26 09:18:00;;;;;;;;;;;;;;;;;;5001577;28;19922;-81
2023/03/26 09:20:28;;;;;;;;;;;;;;;;;;5016255;28;20676;-81
2023/03/26 09:22:55;;;;;;;;;;;;;;;;;;5003141;28;19922;-81
2023/03/26 09:25:23;;;;;;;;;;;;;;;;;;5002359;28;19922;-81
2023/03/26 09:27:50;;;;;;;;;;;;;;;;;;5001072;28;19940;-81
2023/03/26 09:30:23;;;;;;;;;;;;;;;;;;5002486;28;20411;-82
2023/03/26 09:32:55;;;;;;;;;;;;;;;;;;5013525;28;19932;-81
2023/03/26 09:35:23;;;;;;;;;;;;;;;;;;5005011;28;19926;-81
2023/03/26 09:37:50;;;;;;;;;;;;;;;;;;5001069;28;20373;-83
2023/03/26 09:40:19;;;;;;;;;;;;;;;;;;5006008;28;19921;-82
2023/03/26 09:42:52;;;;;;;;;;;;;;;;;;5016334;28;19922;-82
2023/03/26 09:45:19;;;;;;;;;;;;;;;;;;5003675;28;19925;-81
2023/03/26 09:47:47;;;;;;;;;;;;;;;;;;5001418;28;19922;-81
2023/03/26 09:50:17;;;;;;;;;;;;;;;;;;5000645;28;19926;-81
2023/03/26 09:52:44;;;;;;;;;;;;;;;;;;5001352;28;19937;-82
2023/03/26 09:55:13;;;;;;;;;;;;;;;;;;5002897;28;19929;-82
2023/03/26 09:57:44;;;;;;;;;;;;;;;;;;5018103;28;19936;-82
2023/03/26 10:00:12;;;;;;;;;;;;;;;;;;5017457;28;19925;-82
2023/03/26 10:02:39;;;;;;;;;;;;;;;;;;5004393;28;19936;-82
2023/03/26 10:05:07;;;;;;;;;;;;;;;;;;5002687;28;19921;-81
2023/03/26 10:07:34;;;;;;;;;;;;;;;;;;4999889;28;19929;-81
2023/03/26 10:10:02;;;;;;;;;;;;;;;;;;4998079;28;19926;-80
2023/03/26 10:12:35;;;;;;;;;;;;;;;;;;5005249;28;19940;-81
2023/03/26 10:15:07;;;;;;;;;;;;;;;;;;4997085;28;19929;-81
2023/03/26 10:17:41;;;;;;;;;;;;;;;;;;5000348;28;19921;-82
2023/03/26 10:20:09;;;;;;;;;;;;;;;;;;5000970;28;20368;-81
2023/03/26 10:22:37;;;;;;;;;;;;;;;;;;4999124;28;19925;-82
2023/03/26 10:25:10;;;;;;;;;;;;;;;;;;4999932;28;19937;-82
2023/03/26 10:27:42;;;;;;;;;;;;;;;;;;5002054;28;19928;-82
2023/03/26 10:30:10;;;;;;;;;;;;;;;;;;5004740;28;19936;-82
2023/03/26 10:32:44;;;;;;;;;;;;;;;;;;5004648;28;19940;-82
2023/03/26 10:35:16;;;;;;;;;;;;;;;;;;5002467;28;20000;-83
2023/03/26 10:37:44;;;;;;;;;;;;;;;;;;5006021;28;20302;-85
2023/03/26 10:40:12;;;;;;;;;;;;;;;;;;5004636;28;19925;-82
2023/03/26 10:42:44;;;;;;;;;;;;;;;;;;5000705;28;19936;-81
2023/03/26 10:45:17;;;;;;;;;;;;;;;;;;5004805;28;19928;-82
2023/03/26 10:47:44;;;;;;;;;;;;;;;;;;5004604;28;19929;-82
2023/03/26 10:50:12;;;;;;;;;;;;;;;;;;5000124;28;19929;-82
2023/03/26 10:52:39;;;;;;;;;;;;;;;;;;5005210;28;19936;-82
2023/03/26 10:55:12;;;;;;;;;;;;;;;;;;5005150;28;19921;-82
2023/03/26 10:57:39;;;;;;;;;;;;;;;;;;5004002;28;19937;-82
2023/03/26 11:00:08;;;;;;;;;;;;;;;;;;5008575;28;19921;-81
2023/03/26 11:02:40;;;;;;;;;;;;;;;;;;5000092;28;19929;-80
2023/03/26 11:05:08;;;;;;;;;;;;;;;;;;5002860;28;19929;-82
2023/03/26 11:07:35;;;;;;;;;;;;;;;;;;5004593;28;19921;-82
2023/03/26 11:10:03;;;;;;;;;;;;;;;;;;5002873;28;19925;-82
2023/03/26 11:12:30;;;;;;;;;;;;;;;;;;5003977;28;19921;-81
2023/03/26 11:15:03;;;;;;;;;;;;;;;;;;5009163;28;20299;-82
2023/03/26 11:17:31;;;;;;;;;;;;;;;;;;5007859;28;20030;-82
2023/03/26 11:19:58;;;;;;;;;;;;;;;;;;5008726;28;19922;-82
2023/03/26 11:22:26;;;;;;;;;;;;;;;;;;5005113;28;19929;-82
2023/03/26 11:24:53;;;;;;;;;;;;;;;;;;5020701;28;19929;-83
2023/03/26 11:27:21;;;;;;;;;;;;;;;;;;5003184;28;19928;-81
2023/03/26 11:29:53;;;;;;;;;;;;;;;;;;5009027;28;19921;-82
2023/03/26 11:32:21;;;;;;;;;;;;;;;;;;5014523;28;20382;-82
2023/03/26 11:34:55;;;;;;;;;;;;;;;;;;5000852;28;20793;-83
2023/03/26 11:37:22;;;;;;;;;;;;;;;;;;5005920;28;19929;-82
2023/03/26 11:39:50;;;;;;;;;;;;;;;;;;5018116;28;19921;-82
2023/03/26 11:42:18;;;;;;;;;;;;;;;;;;5020016;28;19922;-82
2023/03/26 11:44:45;;;;;;;;;;;;;;;;;;5002068;28;19925;-81
2023/03/26 11:47:14;;;;;;;;;;;;;;;;;;4989680;28;20320;-80
2023/03/26 11:49:42;;;;;;;;;;;;;;;;;;4996665;28;20404;-81
2023/03/26 11:52:15;;;;;;;;;;;;;;;;;;4996307;28;19937;-80
2023/03/26 11:54:49;;;;;;;;;;;;;;;;;;4976071;28;19940;-82
2023/03/26 11:57:16;;;;;;;;;;;;;;;;;;4980196;28;19929;-81
2023/03/26 11:59:44;;;;;;;;;;;;;;;;;;4980256;28;19929;-80
2023/03/26 12:02:11;;;;;;;;;;;;;;;;;;4978976;28;19929;-80
2023/03/26 12:04:44;;;;;;;;;;;;;;;;;;4982495;28;19945;-81
2023/03/26 12:07:12;;;;;;;;;;;;;;;;;;4999235;28;19944;-81
2023/03/26 12:09:44;;;;;;;;;;;;;;;;;;4984360;28;19936;-81
2023/03/26 12:12:12;;;;;;;;;;;;;;;;;;4993767;28;19929;-80
2023/03/26 12:14:44;;;;;;;;;;;;;;;;;;5002308;28;19928;-81
2023/03/26 12:17:17;;;;;;;;;;;;;;;;;;4986633;28;19936;-82
2023/03/26 12:19:44;;;;;;;;;;;;;;;;;;4995992;28;19929;-80
2023/03/26 12:22:12;;;;;;;;;;;;;;;;;;4985666;28;19921;-80
2023/03/26 12:24:40;;;;;;;;;;;;;;;;;;5006117;28;19940;-84
2023/03/26 12:27:07;;;;;;;;;;;;;;;;;;4992380;28;19945;-83
2023/03/26 12:29:35;;;;;;;;;;;;;;;;;;5003450;28;19929;-81
2023/03/26 12:32:02;;;;;;;;;;;;;;;;;;4988124;28;20412;-80
2023/03/26 12:34:33;;;;;;;;;;;;;;;;;;4993918;28;19929;-82
2023/03/26 12:37:00;;;;;;;;;;;;;;;;;;4980787;28;19936;-80
2023/03/26 12:39:29;;;;;;;;;;;;;;;;;;4995893;28;19929;-81
2023/03/26 12:41:57;;;;;;;;;;;;;;;;;;4983470;28;19925;-81
2023/03/26 12:44:24;;;;;;;;;;;;;;;;;;5001210;28;21529;-80
2023/03/26 12:46:57;;;;;;;;;;;;;;;;;;4971134;28;20022;-81
2023/03/26 12:49:30;;;;;;;;;;;;;;;;;;4977206;28;19937;-80
2023/03/26 12:52:02;;;;;;;;;;;;;;;;;;4982049;28;19929;-79
2023/03/26 12:54:31;;;;;;;;;;;;;;;;;;4983657;28;19964;-80
2023/03/26 12:57:06;;;;;;;;;;;;;;;;;;4978866;28;20996;-80
2023/03/26 12:59:34;;;;;;;;;;;;;;;;;;4991881;28;19937;-81
2023/03/26 13:02:06;;;;;;;;;;;;;;;;;;4978768;28;19936;-81
2023/03/26 13:04:34;;;;;;;;;;;;;;;;;;4977856;28;20005;-80
2023/03/26 13:07:01;;;;;;;;;;;;;;;;;;4978297;28;19936;-80
2023/03/26 13:09:34;;;;;;;;;;;;;;;;;;4981730;28;20622;-80
2023/03/26 13:12:01;;;;;;;;;;;;;;;;;;4995138;28;19929;-80
2023/03/26 13:14:34;;;;;;;;;;;;;;;;;;4982560;28;20305;-80
2023/03/26 13:17:01;;;;;;;;;;;;;;;;;;5004784;28;20466;-81
2023/03/26 13:19:29;;;;;;;;;;;;;;;;;;4986677;28;21190;-80
2023/03/26 13:21:56;;;;;;;;;;;;;;;;;;4988379;28;19929;-80
2023/03/26 13:24:24;;;;;;;;;;;;;;;;;;4994157;28;19940;-80
2023/03/26 13:26:51;;;;;;;;;;;;;;;;;;4989775;28;19936;-80
2023/03/26 13:29:24;;;;;;;;;;;;;;;;;;4980172;28;20666;-80
2023/03/26 13:31:51;;;;;;;;;;;;;;;;;;4985166;28;20297;-81
2023/03/26 13:34:19;;;;;;;;;;;;;;;;;;4982909;28;19936;-80
2023/03/26 13:36:47;;;;;;;;;;;;;;;;;;4987920;28;19936;-80
2023/03/26 13:39:14;;;;;;;;;;;;;;;;;;4983598;28;19929;-80
2023/03/26 13:41:42;;;;;;;;;;;;;;;;;;4987912;28;19929;-80
2023/03/26 13:44:09;;;;;;;;;;;;;;;;;;4979064;28;19936;-80
2023/03/26 13:46:37;;;;;;;;;;;;;;;;;;4971107;28;19929;-81
2023/03/26 13:49:11;;;;;;;;;;;;;;;;;;4989298;28;19925;-80
2023/03/26 13:51:39;;;;;;;;;;;;;;;;;;4979970;28;19929;-80
2023/03/26 13:54:12;;;;;;;;;;;;;;;;;;4982121;28;19930;-80
2023/03/26 13:56:45;;;;;;;;;;;;;;;;;;4978677;28;19929;-81
2023/03/26 13:59:12;;;;;;;;;;;;;;;;;;5003874;28;21625;-79
2023/03/26 14:01:46;;;;;;;;;;;;;;;;;;4975054;28;19925;-80
2023/03/26 14:04:16;;;;;;;;;;;;;;;;;;4991859;28;19929;-80
2023/03/26 14:06:45;;;;;;;;;;;;;;;;;;4979400;28;19935;-80
2023/03/26 14:09:18;;;;;;;;;;;;;;;;;;4988586;28;19936;-81
2023/03/26 14:11:45;;;;;;;;;;;;;;;;;;4984927;28;19929;-80
2023/03/26 14:14:13;;;;;;;;;;;;;;;;;;4979814;28;19936;-80
2023/03/26 14:16:45;;;;;;;;;;;;;;;;;;4981031;28;19929;-81
2023/03/26 14:19:18;;;;;;;;;;;;;;;;;;4976444;28;19929;-80
2023/03/26 14:21:45;;;;;;;;;;;;;;;;;;4976092;28;19925;-81
2023/03/26 14:24:13;;;;;;;;;;;;;;;;;;5003831;28;19929;-80
2023/03/26 14:26:40;;;;;;;;;;;;;;;;;;4991702;28;19934;-80
2023/03/26 14:29:08;;;;;;;;;;;;;;;;;;4980205;28;20586;-81
2023/03/26 14:31:36;;;;;;;;;;;;;;;;;;4990339;28;19929;-80
2023/03/26 14:34:05;;;;;;;;;;;;;;;;;;4976775;28;19933;-80
2023/03/26 14:36:38;;;;;;;;;;;;;;;;;;4979473;28;19957;-82
2023/03/26 14:39:06;;;;;;;;;;;;;;;;;;4974647;28;19929;-82
2023/03/26 14:41:39;;;;;;;;;;;;;;;;;;4984442;28;20267;-82
2023/03/26 14:44:06;;;;;;;;;;;;;;;;;;4991485;28;19929;-82
2023/03/26 14:46:34;;;;;;;;;;;;;;;;;;4984770;28;19930;-82
2023/03/26 14:49:05;;;;;;;;;;;;;;;;;;4986858;28;19929;-82
2023/03/26 14:51:39;;;;;;;;;;;;;;;;;;4988418;28;20286;-82
2023/03/26 14:54:07;;;;;;;;;;;;;;;;;;4978416;28;19930;-81
2023/03/26 14:56:35;;;;;;;;;;;;;;;;;;4981074;28;19930;-83
2023/03/26 14:59:02;;;;;;;;;;;;;;;;;;4997208;28;19929;-82
2023/03/26 15:01:30;;;;;;;;;;;;;;;;;;4997187;28;21590;-81
2023/03/26 15:03:58;;;;;;;;;;;;;;;;;;4979029;28;21260;-81
2023/03/26 15:06:25;;;;;;;;;;;;;;;;;;4999987;28;19925;-82
2023/03/26 15:08:53;;;;;;;;;;;;;;;;;;4982298;28;19940;-83
2023/03/26 15:11:20;;;;;;;;;;;;;;;;;;4981307;28;19948;-83
2023/03/26 15:13:48;;;;;;;;;;;;;;;;;;4978385;28;20414;-82
2023/03/26 15:16:15;;;;;;;;;;;;;;;;;;4997798;28;19936;-83
2023/03/26 15:18:43;;;;;;;;;;;;;;;;;;4988043;28;19929;-82
2023/03/26 15:21:11;;;;;;;;;;;;;;;;;;4990765;28;19939;-82
2023/03/26 15:23:38;;;;;;;;;;;;;;;;;;4989247;28;19941;-81
2023/03/26 15:26:08;;;;;;;;;;;;;;;;;;4997925;28;19929;-83
2023/03/26 15:28:41;;;;;;;;;;;;;;;;;;5003201;28;19940;-81
2023/03/26 15:31:09;;;;;;;;;;;;;;;;;;4984050;28;19936;-81
2023/03/26 15:33:37;;;;;;;;;;;;;;;;;;4997280;28;19999;-81
2023/03/26 15:36:07;;;;;;;;;;;;;;;;;;4983075;28;19936;-81
2023/03/26 15:38:37;;;;;;;;;;;;;;;;;;4982335;28;19936;-82
2023/03/26 15:41:05;;;;;;;;;;;;;;;;;;4997345;28;19927;-82
2023/03/26 15:43:32;;;;;;;;;;;;;;;;;;4984668;28;19937;-83
2023/03/26 15:46:00;;;;;;;;;;;;;;;;;;4974765;28;20402;-81
2023/03/26 15:48:28;;;;;;;;;;;;;;;;;;4977371;28;19937;-82
2023/03/26 15:50:56;;;;;;;;;;;;;;;;;;4985063;28;19929;-83
2023/03/26 15:53:24;;;;;;;;;;;;;;;;;;4985917;28;19936;-81
2023/03/26 15:55:51;;;;;;;;;;;;;;;;;;4985082;28;20377;-82
2023/03/26 15:58:24;;;;;;;;;;;;;;;;;;5001772;28;20498;-82
2023/03/26 16:00:53;;;;;;;;;;;;;;;;;;5004020;28;19929;-82
2023/03/26 16:03:22;;;;;;;;;;;;;;;;;;4999561;28;19936;-82
2023/03/26 16:05:51;;;;;;;;;;;;;;;;;;4989098;28;20717;-82
2023/03/26 16:08:18;;;;;;;;;;;;;;;;;;5006185;28;20362;-82
2023/03/26 16:10:46;;;;;;;;;;;;;;;;;;5003296;28;20455;-83
2023/03/26 16:13:13;;;;;;;;;;;;;;;;;;4997781;28;19929;-84
2023/03/26 16:15:41;;;;;;;;;;;;;;;;;;4982904;28;19929;-82
2023/03/26 16:18:10;;;;;;;;;;;;;;;;;;4997766;28;20668;-83
2023/03/26 16:20:38;;;;;;;;;;;;;;;;;;4986254;28;21497;-82
2023/03/26 16:23:05;;;;;;;;;;;;;;;;;;4984460;28;19960;-82
2023/03/26 16:25:33;;;;;;;;;;;;;;;;;;5003367;28;21244;-81
2023/03/26 16:28:01;;;;;;;;;;;;;;;;;;5004283;28;19929;-82
2023/03/26 16:30:33;;;;;;;;;;;;;;;;;;4981535;28;19940;-81
2023/03/26 16:33:02;;;;;;;;;;;;;;;;;;4999894;28;21027;-82
2023/03/26 16:35:30;;;;;;;;;;;;;;;;;;5003891;28;19952;-82
2023/03/26 16:37:57;;;;;;;;;;;;;;;;;;4986029;28;19929;-82
2023/03/26 16:40:26;;;;;;;;;;;;;;;;;;5000186;28;19929;-82
2023/03/26 16:42:53;;;;;;;;;;;;;;;;;;4993470;28;19951;-81
2023/03/26 16:45:21;;;;;;;;;;;;;;;;;;4990254;28;19926;-82
2023/03/26 16:47:53;;;;;;;;;;;;;;;;;;4959574;28;19929;-82
2023/03/26 16:50:23;;;;;;;;;;;;;;;;;;4998587;28;19936;-82
2023/03/26 16:52:51;;;;;;;;;;;;;;;;;;4987431;28;20298;-82
2023/03/26 16:55:19;;;;;;;;;;;;;;;;;;4989642;28;21110;-82
2023/03/26 16:57:46;;;;;;;;;;;;;;;;;;4982096;28;19930;-82
2023/03/26 17:00:15;;;;;;;;;;;;;;;;;;4988524;28;19941;-83
2023/03/26 17:02:44;;;;;;;;;;;;;;;;;;4999497;28;20321;-83
2023/03/26 17:05:12;;;;;;;;;;;;;;;;;;5003179;28;19932;-82
2023/03/26 17:07:39;;;;;;;;;;;;;;;;;;4990434;28;19929;-82
2023/03/26 17:10:07;;;;;;;;;;;;;;;;;;5000726;28;19948;-83
2023/03/26 17:12:40;;;;;;;;;;;;;;;;;;4984456;28;19948;-83
2023/03/26 17:15:07;;;;;;;;;;;;;;;;;;4985307;28;20310;-82
2023/03/26 17:17:40;;;;;;;;;;;;;;;;;;4983442;28;21277;-82
2023/03/26 17:20:10;;;;;;;;;;;;;;;;;;4998823;28;20274;-83